Main page
METAR-TAF:

METAR-TAF

Airports :

Niederstetten Air Base

Niederstetten, Germany

latitude: 49-24N, longitude: 009-58E, elevation: 468 m

Current weather observation

The report was made 56 minutes ago, at 22:20 UTC
Wind 11 kt from the East
Temperature 12°C
Humidity 44%
Pressure 1004 hPa
Visibility 10 km or more
Broken clouds at a height of 30000 ft

METAR: ETHN 222220Z 10011KT 9999 BKN300 12/00 Q1004 BLU+

Time: 01:16 (23:16 UTC)


TAF: missing

Weather observations and forecasts of more than 4000 airports (METAR and TAF reports).

The available stations are represented by yellow and red dots on the map.

Hover mouse over dot to see the name of the station.

Then click to see weather observations and forecasts.

To change the map : click on the green buttons with a black cross to zoom in, on the green button with a dash to zoom out, or on the green arrows for adjacent maps.


METAR-TAF: